createdAt,value
2023-11-19T00:01:25.528Z,1.60
2023-11-19T00:03:54.626Z,1.40
2023-11-19T00:06:24.158Z,1.40
2023-11-19T00:08:53.409Z,1.63
2023-11-19T00:11:21.279Z,1.33
2023-11-19T00:13:49.218Z,1.30
2023-11-19T00:16:17.715Z,1.30
2023-11-19T00:18:45.750Z,1.10
2023-11-19T00:21:13.737Z,1.20
2023-11-19T00:23:41.681Z,1.10
2023-11-19T00:26:11.379Z,1.10
2023-11-19T00:28:40.416Z,1.20
2023-11-19T00:31:08.598Z,1.20
2023-11-19T00:36:17.041Z,1.38
2023-11-19T00:38:44.931Z,1.40
2023-11-19T00:41:17.001Z,1.40
2023-11-19T00:43:44.933Z,1.40
2023-11-19T00:46:13.050Z,1.50
2023-11-19T00:48:41.191Z,1.50
2023-11-19T00:51:09.623Z,1.30
2023-11-19T00:53:37.563Z,1.30
2023-11-19T00:56:06.066Z,1.27
2023-11-19T00:58:35.319Z,1.10
2023-11-19T01:01:03.173Z,1.05
2023-11-19T01:03:31.237Z,0.90
2023-11-19T01:06:00.802Z,0.70
2023-11-19T01:08:29.262Z,0.90
2023-11-19T01:10:57.172Z,0.77
2023-11-19T01:13:25.730Z,0.70
2023-11-19T01:15:57.368Z,0.60
2023-11-19T01:18:25.554Z,0.50
2023-11-19T01:20:53.558Z,0.50
2023-11-19T01:23:21.471Z,0.60
2023-11-19T01:25:49.630Z,0.50
2023-11-19T01:28:17.625Z,0.60
2023-11-19T01:30:45.530Z,0.43
2023-11-19T01:33:14.937Z,0.50
2023-11-19T01:35:42.937Z,0.60
2023-11-19T01:38:11.002Z,0.50
2023-11-19T01:40:39.414Z,0.60
2023-11-19T01:43:07.389Z,0.45
2023-11-19T01:45:35.928Z,0.52
2023-11-19T01:48:06.066Z,0.73
2023-11-19T01:50:36.786Z,0.32
2023-11-19T01:53:04.849Z,0.55
2023-11-19T01:55:32.913Z,0.50
2023-11-19T01:58:03.707Z,0.40
2023-11-19T02:00:34.475Z,0.30
2023-11-19T02:03:02.946Z,0.60
2023-11-19T02:05:33.478Z,0.40
2023-11-19T02:08:03.413Z,0.68
2023-11-19T02:10:32.984Z,0.60
2023-11-19T02:15:34.541Z,0.60
2023-11-19T02:18:20.739Z,0.60
2023-11-19T02:20:50.929Z,0.50
2023-11-19T02:23:22.194Z,0.70
2023-11-19T02:26:03.996Z,0.80
2023-11-19T02:28:34.082Z,0.90
2023-11-19T02:31:02.243Z,1.00
2023-11-19T02:33:30.518Z,0.90
2023-11-19T02:35:58.536Z,1.20
2023-11-19T02:38:26.903Z,1.20
2023-11-19T02:40:55.075Z,1.05
2023-11-19T02:43:23.035Z,1.40
2023-11-19T02:45:52.683Z,1.13
2023-11-19T02:48:20.515Z,1.20
2023-11-19T02:50:49.305Z,1.48
2023-11-19T02:53:17.587Z,1.15
2023-11-19T02:55:49.764Z,1.00
2023-11-19T02:58:24.721Z,1.20
2023-11-19T03:00:58.655Z,1.23
2023-11-19T03:03:32.057Z,1.20
2023-11-19T03:06:00.254Z,1.67
2023-11-19T03:08:28.346Z,1.13
2023-11-19T03:10:56.361Z,1.50
2023-11-19T03:13:24.333Z,1.25
2023-11-19T03:15:52.743Z,1.40
2023-11-19T03:18:22.109Z,1.33
2023-11-19T03:20:50.847Z,1.65
2023-11-19T03:23:18.710Z,1.45
2023-11-19T03:25:46.667Z,1.50
2023-11-19T03:28:14.788Z,1.60
2023-11-19T03:30:43.046Z,2.15
2023-11-19T03:33:11.032Z,1.30
2023-11-19T03:35:42.208Z,1.60
2023-11-19T03:38:10.059Z,1.98
2023-11-19T03:40:39.230Z,1.75
2023-11-19T03:43:07.360Z,1.90
2023-11-19T03:45:35.343Z,1.30
2023-11-19T03:48:04.225Z,1.55
2023-11-19T03:50:32.162Z,1.42
2023-11-19T03:53:01.891Z,1.80
2023-11-19T03:55:30.068Z,1.67
2023-11-19T03:57:58.677Z,1.65
2023-11-19T04:00:26.584Z,1.48
2023-11-19T04:02:54.641Z,2.20
2023-11-19T04:05:22.529Z,2.33
2023-11-19T04:07:50.456Z,1.77
2023-11-19T04:10:19.877Z,1.77
2023-11-19T04:12:48.256Z,1.92
2023-11-19T04:15:16.721Z,1.77
2023-11-19T04:17:44.740Z,1.52
2023-11-19T04:20:14.635Z,1.80
2023-11-19T04:22:43.008Z,1.80
2023-11-19T04:25:12.202Z,1.60
2023-11-19T04:27:41.528Z,1.85
2023-11-19T04:30:12.377Z,1.73
2023-11-19T04:32:40.898Z,1.80
2023-11-19T04:35:10.705Z,1.95
2023-11-19T04:37:39.020Z,2.33
2023-11-19T04:40:08.416Z,1.83
2023-11-19T04:42:36.440Z,1.58
2023-11-19T04:45:07.971Z,2.00
2023-11-19T04:47:36.474Z,1.92
2023-11-19T04:50:04.660Z,2.08
2023-11-19T04:52:32.683Z,1.77
2023-11-19T04:55:00.644Z,2.33
2023-11-19T04:57:28.763Z,1.83
2023-11-19T04:59:56.562Z,1.90
2023-11-19T05:02:26.051Z,2.22
2023-11-19T05:04:54.211Z,1.95
2023-11-19T05:07:22.509Z,1.90
2023-11-19T05:09:50.378Z,1.90
2023-11-19T05:12:18.428Z,1.80
2023-11-19T05:14:51.831Z,1.83
2023-11-19T05:17:20.480Z,1.90
2023-11-19T05:19:50.074Z,2.70
2023-11-19T05:22:18.213Z,1.85
2023-11-19T05:24:46.105Z,1.90
2023-11-19T05:27:14.753Z,1.90
2023-11-19T05:29:44.015Z,1.75
2023-11-19T05:32:12.574Z,2.10
2023-11-19T05:34:52.103Z,1.88
2023-11-19T05:37:22.244Z,1.90
2023-11-19T05:39:50.284Z,1.85
2023-11-19T05:42:18.264Z,2.00
2023-11-19T05:44:46.173Z,2.58
2023-11-19T05:47:14.206Z,1.90
2023-11-19T05:49:42.268Z,2.00
2023-11-19T05:52:11.725Z,2.25
2023-11-19T05:54:41.344Z,2.15
2023-11-19T05:57:10.595Z,1.73
2023-11-19T05:59:39.065Z,2.30
2023-11-19T06:02:06.937Z,1.90
2023-11-19T06:04:35.027Z,2.17
2023-11-19T06:07:03.134Z,2.03
2023-11-19T06:09:31.237Z,2.00
2023-11-19T06:12:02.924Z,1.90
2023-11-19T06:14:30.904Z,2.47
2023-11-19T06:16:58.848Z,2.10
2023-11-19T06:19:30.637Z,1.73
2023-11-19T06:21:59.019Z,2.00
2023-11-19T06:24:26.874Z,1.83
2023-11-19T06:26:54.874Z,2.35
2023-11-19T06:29:24.106Z,1.73
2023-11-19T06:31:52.382Z,2.20
2023-11-19T06:34:20.275Z,2.22
2023-11-19T06:36:49.567Z,2.33
2023-11-19T06:39:18.597Z,3.25
2023-11-19T06:41:49.942Z,2.20
2023-11-19T06:44:17.976Z,2.30
2023-11-19T06:46:47.307Z,2.45
2023-11-19T06:49:15.510Z,2.00
2023-11-19T06:51:45.049Z,1.98
2023-11-19T06:54:13.059Z,2.72
2023-11-19T06:56:41.023Z,2.08
2023-11-19T06:59:08.996Z,2.47
2023-11-19T07:01:38.142Z,2.17
2023-11-19T07:04:10.564Z,2.08
2023-11-19T07:06:38.558Z,2.42
2023-11-19T07:09:11.607Z,2.05
2023-11-19T07:11:40.633Z,2.20
2023-11-19T07:14:09.102Z,2.25
2023-11-19T07:16:38.534Z,2.03
2023-11-19T07:19:08.257Z,2.85
2023-11-19T07:21:40.446Z,2.17
2023-11-19T07:24:09.278Z,2.55
2023-11-19T07:26:37.236Z,2.10
2023-11-19T07:29:08.695Z,2.70
2023-11-19T07:31:36.832Z,1.98
2023-11-19T07:34:04.915Z,2.58
2023-11-19T07:36:34.347Z,2.20
2023-11-19T07:39:02.232Z,2.47
2023-11-19T07:41:30.208Z,2.13
2023-11-19T07:43:58.133Z,2.33
2023-11-19T07:46:26.532Z,2.33
2023-11-19T07:48:55.028Z,2.22
2023-11-19T07:51:23.237Z,2.53
2023-11-19T07:53:52.597Z,2.70
2023-11-19T07:56:20.785Z,2.15
2023-11-19T07:58:49.376Z,2.35
2023-11-19T08:01:18.314Z,2.78
2023-11-19T08:06:17.477Z,1.90
2023-11-19T08:08:45.889Z,2.33
2023-11-19T08:11:16.144Z,2.65
2023-11-19T08:13:44.549Z,2.42
2023-11-19T08:16:13.065Z,2.95
2023-11-19T08:18:46.141Z,2.67
2023-11-19T08:21:14.654Z,2.50
2023-11-19T08:23:44.568Z,2.25
2023-11-19T08:26:12.729Z,2.42
2023-11-19T08:28:42.391Z,2.33
2023-11-19T08:31:10.569Z,2.22
2023-11-19T08:33:39.839Z,2.70
2023-11-19T08:36:08.882Z,3.20
2023-11-19T08:38:37.323Z,2.30
2023-11-19T08:41:06.591Z,2.20
2023-11-19T08:43:34.601Z,2.63
2023-11-19T08:46:04.293Z,2.13
2023-11-19T08:48:32.324Z,2.22
2023-11-19T08:51:05.203Z,2.60
2023-11-19T08:53:33.281Z,2.30
2023-11-19T08:56:01.642Z,3.10
2023-11-19T08:58:29.911Z,2.60
2023-11-19T09:00:58.481Z,2.25
2023-11-19T09:03:28.638Z,2.17
2023-11-19T09:05:56.786Z,2.33
2023-11-19T09:08:25.117Z,2.17
2023-11-19T09:10:53.247Z,2.85
2023-11-19T09:13:21.238Z,2.10
2023-11-19T09:15:49.709Z,3.05
2023-11-19T09:18:17.850Z,2.50
2023-11-19T09:20:47.928Z,2.92
2023-11-19T09:23:16.547Z,2.50
2023-11-19T09:25:45.717Z,2.55
2023-11-19T09:28:14.314Z,2.47
2023-11-19T09:30:42.429Z,2.08
2023-11-19T09:33:10.951Z,2.15
2023-11-19T09:35:39.004Z,2.67
2023-11-19T09:38:08.860Z,2.63
2023-11-19T09:40:36.848Z,2.80
2023-11-19T09:43:05.070Z,2.10
2023-11-19T09:45:40.993Z,2.45
2023-11-19T09:48:09.611Z,1.85
2023-11-19T09:50:38.027Z,2.38
2023-11-19T09:53:06.605Z,2.33
2023-11-19T09:55:35.894Z,2.30
2023-11-19T09:58:04.461Z,2.20
2023-11-19T10:00:33.032Z,2.35
2023-11-19T10:03:02.545Z,2.20
2023-11-19T10:05:30.679Z,2.90
2023-11-19T10:07:59.404Z,2.30
2023-11-19T10:10:27.600Z,2.33
2023-11-19T10:12:58.322Z,2.58
2023-11-19T10:15:28.620Z,2.38
2023-11-19T10:17:59.144Z,2.45
2023-11-19T10:20:27.758Z,2.30
2023-11-19T10:22:57.026Z,2.20
2023-11-19T10:25:26.802Z,2.35
2023-11-19T10:27:57.010Z,2.78
2023-11-19T10:30:27.331Z,2.50
2023-11-19T10:33:09.134Z,2.35
2023-11-19T10:35:38.364Z,2.67
2023-11-19T10:38:16.626Z,2.97
2023-11-19T10:40:44.769Z,2.10
2023-11-19T10:43:14.879Z,2.40
2023-11-19T10:45:43.138Z,2.13
2023-11-19T10:48:11.593Z,2.83
2023-11-19T10:50:40.593Z,2.72
2023-11-19T10:53:10.752Z,2.80
2023-11-19T10:55:40.892Z,2.13
2023-11-19T10:58:10.559Z,2.08
2023-11-19T11:00:47.222Z,2.20
2023-11-19T11:03:19.734Z,2.38
2023-11-19T11:05:49.616Z,2.35
2023-11-19T11:08:18.110Z,2.50
2023-11-19T11:13:19.263Z,2.15
2023-11-19T11:15:49.147Z,2.30
2023-11-19T11:18:18.308Z,2.70
2023-11-19T11:20:47.625Z,2.58
2023-11-19T11:23:45.139Z,1.83
2023-11-19T11:26:37.562Z,2.33
2023-11-19T11:29:11.651Z,2.20
2023-11-19T11:31:50.828Z,2.28
2023-11-19T11:34:53.065Z,2.08
2023-11-19T11:37:28.230Z,1.75
2023-11-19T11:40:00.508Z,2.65
2023-11-19T11:42:36.505Z,1.98
2023-11-19T11:45:09.159Z,2.00
2023-11-19T11:48:21.046Z,1.98
2023-11-19T11:51:00.390Z,2.00
2023-11-19T11:53:28.669Z,1.92
2023-11-19T11:56:02.192Z,2.47
2023-11-19T11:58:33.584Z,1.88
2023-11-19T12:01:04.393Z,2.33
2023-11-19T12:03:34.178Z,2.08
2023-11-19T12:06:04.367Z,2.35
2023-11-19T12:08:32.575Z,1.73
2023-11-19T12:11:01.067Z,1.88
2023-11-19T12:13:49.596Z,2.17
2023-11-19T12:16:17.516Z,2.25
2023-11-19T12:18:45.964Z,2.22
2023-11-19T12:21:29.965Z,2.20
2023-11-19T12:24:05.038Z,1.95
2023-11-19T12:26:35.469Z,2.50
2023-11-19T12:29:08.829Z,2.72
2023-11-19T12:31:40.905Z,1.80
2023-11-19T12:34:14.344Z,2.28
2023-11-19T12:36:44.647Z,2.40
2023-11-19T12:39:15.974Z,2.17
2023-11-19T12:41:56.393Z,2.00
2023-11-19T12:44:25.142Z,1.92
2023-11-19T12:47:05.612Z,2.13
2023-11-19T12:49:33.635Z,2.50
2023-11-19T12:52:04.187Z,2.33
2023-11-19T12:54:36.480Z,1.77
2023-11-19T12:57:06.037Z,1.70
2023-11-19T12:59:34.080Z,1.60
2023-11-19T13:02:04.285Z,1.80
2023-11-19T13:04:32.822Z,2.65
2023-11-19T13:07:07.567Z,2.08
2023-11-19T13:09:35.746Z,1.90
2023-11-19T13:12:15.807Z,2.17
2023-11-19T13:14:45.598Z,2.40
2023-11-19T13:17:17.191Z,2.50
2023-11-19T13:19:48.203Z,1.92
2023-11-19T13:22:17.737Z,2.15
2023-11-19T13:24:45.654Z,2.35
2023-11-19T13:27:13.624Z,1.50
2023-11-19T13:29:41.660Z,1.80
2023-11-19T13:32:09.842Z,1.80
2023-11-19T13:34:38.229Z,1.73
2023-11-19T13:37:06.267Z,1.60
2023-11-19T13:39:37.537Z,2.47
2023-11-19T13:44:37.221Z,2.25
2023-11-19T13:47:05.491Z,1.73
2023-11-19T13:49:51.418Z,2.13
2023-11-19T13:52:19.343Z,1.60
2023-11-19T13:54:57.424Z,1.80
2023-11-19T13:57:26.559Z,2.50
2023-11-19T13:59:54.791Z,2.20
2023-11-19T14:02:22.888Z,1.80
2023-11-19T14:04:50.794Z,2.22
2023-11-19T14:07:19.268Z,1.98
2023-11-19T14:09:48.611Z,1.95
2023-11-19T14:12:16.615Z,2.30
2023-11-19T14:14:44.955Z,1.73
2023-11-19T14:17:16.492Z,2.15
2023-11-19T14:19:45.275Z,2.70
2023-11-19T14:22:16.065Z,1.95
2023-11-19T14:24:44.268Z,2.00
2023-11-19T14:27:13.865Z,2.10
2023-11-19T14:29:41.944Z,2.15
2023-11-19T14:32:10.521Z,2.10
2023-11-19T14:34:39.357Z,2.00
2023-11-19T14:37:07.865Z,2.28
2023-11-19T14:39:35.970Z,2.22
2023-11-19T14:42:06.396Z,2.40
2023-11-19T14:44:35.875Z,1.98
2023-11-19T14:47:04.425Z,2.42
2023-11-19T14:49:32.679Z,2.72
2023-11-19T14:52:17.630Z,2.83
2023-11-19T14:54:47.083Z,2.55
2023-11-19T14:57:15.654Z,2.58
2023-11-19T14:59:45.176Z,2.65
2023-11-19T15:02:13.402Z,2.53
2023-11-19T15:04:42.681Z,2.38
2023-11-19T15:07:11.328Z,2.00
2023-11-19T15:09:39.397Z,2.28
2023-11-19T15:12:08.243Z,1.80
2023-11-19T15:14:36.570Z,2.03
2023-11-19T15:17:07.918Z,1.75
2023-11-19T15:19:36.087Z,2.05
2023-11-19T15:22:06.750Z,2.35
2023-11-19T15:24:34.947Z,1.98
2023-11-19T15:29:35.649Z,2.47
2023-11-19T15:32:05.542Z,2.40
2023-11-19T15:34:33.798Z,1.80
2023-11-19T15:37:02.124Z,1.83
2023-11-19T15:39:30.668Z,2.03
2023-11-19T15:42:00.494Z,2.28
2023-11-19T15:44:29.767Z,1.90
2023-11-19T15:46:57.732Z,1.75
2023-11-19T15:49:30.167Z,1.83
2023-11-19T15:51:58.386Z,1.90
2023-11-19T15:54:26.511Z,2.30
2023-11-19T15:56:54.597Z,1.98
2023-11-19T15:59:23.343Z,2.35
2023-11-19T16:01:51.564Z,2.63
2023-11-19T16:04:20.427Z,1.80
2023-11-19T16:06:50.118Z,1.70
2023-11-19T16:09:20.383Z,1.80
2023-11-19T16:11:54.568Z,1.67
2023-11-19T16:14:25.286Z,1.83
2023-11-19T16:16:54.893Z,2.38
2023-11-19T16:19:22.963Z,1.98
2023-11-19T16:21:52.447Z,2.25
2023-11-19T16:24:20.714Z,3.00
2023-11-19T16:26:50.204Z,2.13
2023-11-19T16:29:18.355Z,2.20
2023-11-19T16:31:46.889Z,2.20
2023-11-19T16:34:15.630Z,2.47
2023-11-19T16:36:44.929Z,2.25
2023-11-19T16:39:16.573Z,2.30
2023-11-19T16:41:45.247Z,3.03
2023-11-19T16:44:13.279Z,2.60
2023-11-19T16:46:41.403Z,2.65
2023-11-19T16:49:09.390Z,2.83
2023-11-19T16:51:37.381Z,2.45
2023-11-19T16:54:05.975Z,2.70
2023-11-19T16:57:47.571Z,2.50
2023-11-19T17:17:29.386Z,1.80
2023-11-19T17:20:44.818Z,1.83
2023-11-19T17:31:50.659Z,1.92
2023-11-19T17:45:05.789Z,2.55
2023-11-19T17:47:40.461Z,2.13
2023-11-19T17:56:16.007Z,2.08
2023-11-19T18:05:37.658Z,2.00
2023-11-19T18:08:09.736Z,1.70
2023-11-19T18:10:40.383Z,1.83
2023-11-19T18:13:09.523Z,1.88
2023-11-19T18:15:38.142Z,2.10
2023-11-19T18:18:06.594Z,2.10
2023-11-19T18:20:34.886Z,1.83
2023-11-19T18:23:03.078Z,2.13
2023-11-19T18:25:32.991Z,1.92
2023-11-19T18:28:02.338Z,2.17
2023-11-19T18:30:30.701Z,2.15
2023-11-19T18:32:59.214Z,2.08
2023-11-19T18:35:27.998Z,2.00
2023-11-19T18:37:56.707Z,1.75
2023-11-19T18:40:25.622Z,1.77
2023-11-19T18:42:55.650Z,1.50
2023-11-19T18:45:24.300Z,1.85
2023-11-19T18:47:53.001Z,1.98
2023-11-19T18:50:22.190Z,2.25
2023-11-19T18:52:50.815Z,2.15
2023-11-19T18:55:19.241Z,1.92
2023-11-19T18:57:48.132Z,2.10
2023-11-19T19:00:20.317Z,1.70
2023-11-19T19:05:22.956Z,1.92
2023-11-19T19:07:53.687Z,2.35
2023-11-19T19:10:22.124Z,2.40
2023-11-19T19:12:51.133Z,2.00
2023-11-19T19:15:20.755Z,2.42
2023-11-19T19:17:50.794Z,2.17
2023-11-19T19:20:19.577Z,2.50
2023-11-19T19:22:47.751Z,2.33
2023-11-19T19:25:17.127Z,2.40
2023-11-19T19:27:46.313Z,2.20
2023-11-19T19:30:15.394Z,1.90
2023-11-19T19:32:45.960Z,2.28
2023-11-19T19:35:14.632Z,2.80
2023-11-19T19:37:42.982Z,2.20
2023-11-19T19:42:45.784Z,2.00
2023-11-19T19:45:16.338Z,2.22
2023-11-19T19:47:46.019Z,2.25
2023-11-19T19:50:14.332Z,2.05
2023-11-19T19:52:42.794Z,1.88
2023-11-19T19:55:13.152Z,1.60
2023-11-19T19:57:46.539Z,1.80
2023-11-19T20:00:17.140Z,1.73
2023-11-19T20:02:47.697Z,1.73
2023-11-19T20:05:19.040Z,2.15
2023-11-19T20:07:49.078Z,1.50
2023-11-19T20:10:24.978Z,1.80
2023-11-19T20:12:53.218Z,1.58
2023-11-19T20:15:25.360Z,1.50
2023-11-19T20:17:55.012Z,1.30
2023-11-19T20:20:23.278Z,1.60
2023-11-19T20:22:55.101Z,1.45
2023-11-19T20:25:26.142Z,1.40
2023-11-19T20:27:54.540Z,1.80
2023-11-19T20:30:22.980Z,1.60
2023-11-19T20:32:51.353Z,1.50
2023-11-19T20:35:21.585Z,1.60
2023-11-19T20:37:53.156Z,1.27
2023-11-19T20:40:22.193Z,1.48
2023-11-19T20:42:51.684Z,1.20
2023-11-19T20:45:22.112Z,1.50
2023-11-19T20:47:51.761Z,1.38
2023-11-19T20:50:31.514Z,1.27
2023-11-19T20:53:04.294Z,1.50
2023-11-19T20:55:34.244Z,1.30
2023-11-19T20:58:05.798Z,1.42
2023-11-19T21:00:34.404Z,1.33
2023-11-19T21:03:09.223Z,1.35
2023-11-19T21:05:41.242Z,1.65
2023-11-19T21:08:10.145Z,1.55
2023-11-19T21:10:38.329Z,1.30
2023-11-19T21:13:06.621Z,1.65
2023-11-19T21:15:39.433Z,1.60
2023-11-19T21:18:12.248Z,1.40
2023-11-19T21:20:45.447Z,1.35
2023-11-19T21:23:13.998Z,1.65
2023-11-19T21:25:42.125Z,2.03
2023-11-19T21:28:10.690Z,1.30
2023-11-19T21:30:40.048Z,1.40
2023-11-19T21:33:08.770Z,1.25
2023-11-19T21:35:38.931Z,1.23
2023-11-19T21:38:08.523Z,1.60
2023-11-19T21:40:36.671Z,1.40
2023-11-19T21:43:06.860Z,1.50
2023-11-19T21:45:46.572Z,1.73
2023-11-19T21:48:18.322Z,1.52
2023-11-19T21:50:51.861Z,1.17
2023-11-19T21:53:21.734Z,1.25
2023-11-19T21:55:51.062Z,1.75
2023-11-19T21:58:19.190Z,1.50
2023-11-19T22:00:47.541Z,1.73
2023-11-19T22:03:16.010Z,1.25
2023-11-19T22:05:44.246Z,1.40
2023-11-19T22:10:48.446Z,1.40
2023-11-19T22:13:17.048Z,1.38
2023-11-19T22:15:45.324Z,1.35
2023-11-19T22:18:13.505Z,1.52
2023-11-19T22:20:41.768Z,1.92
2023-11-19T22:23:10.476Z,1.67
2023-11-19T22:25:38.637Z,1.65
2023-11-19T22:28:08.032Z,1.60
2023-11-19T22:30:36.519Z,1.98
2023-11-19T22:33:08.406Z,1.65
2023-11-19T22:35:37.902Z,1.33
2023-11-19T22:38:07.216Z,1.48
2023-11-19T22:40:36.887Z,1.40
2023-11-19T22:43:05.049Z,1.23
2023-11-19T22:45:34.734Z,1.20
2023-11-19T22:48:03.359Z,1.23
2023-11-19T22:50:32.957Z,1.30
2023-11-19T22:53:01.371Z,1.40
2023-11-19T22:55:29.419Z,1.63
2023-11-19T22:58:01.137Z,1.52
2023-11-19T23:00:30.790Z,1.60
2023-11-19T23:03:04.926Z,1.55
2023-11-19T23:05:41.463Z,1.77
2023-11-19T23:08:12.041Z,1.50
2023-11-19T23:10:40.206Z,1.80
2023-11-19T23:13:08.573Z,1.40
2023-11-19T23:15:36.587Z,1.30
2023-11-19T23:18:06.446Z,1.33
2023-11-19T23:20:34.694Z,1.27
2023-11-19T23:23:03.242Z,1.10
2023-11-19T23:25:31.623Z,1.20
2023-11-19T23:27:59.641Z,1.05
2023-11-19T23:30:27.859Z,1.25
2023-11-19T23:32:55.951Z,1.13
2023-11-19T23:35:25.293Z,1.00
2023-11-19T23:37:53.189Z,0.90
2023-11-19T23:40:21.132Z,1.52
2023-11-19T23:42:49.494Z,1.10
2023-11-19T23:45:17.941Z,1.17
2023-11-19T23:47:45.912Z,1.05
2023-11-19T23:50:14.032Z,1.20
2023-11-19T23:52:43.301Z,1.40
2023-11-19T23:55:12.509Z,1.50
2023-11-19T23:57:41.475Z,1.13
